sensor_id;sensor_type;location;lat;lon;timestamp;pressure;altitude;pressure_sealevel;temperature;humidity
11712;BME280;5912;51.034;6.984;2024-01-16T00:01:54;56765.00;;;-142.13;70.11
11712;BME280;5912;51.034;6.984;2024-01-16T00:04:19;56763.00;;;-142.13;69.85
11712;BME280;5912;51.034;6.984;2024-01-16T00:06:45;56754.97;;;-142.13;70.00
11712;BME280;5912;51.034;6.984;2024-01-16T00:09:10;56783.03;;;-142.13;69.69
11712;BME280;5912;51.034;6.984;2024-01-16T00:11:42;56799.06;;;-142.13;70.11
11712;BME280;5912;51.034;6.984;2024-01-16T00:14:08;56783.03;;;-142.13;69.69
11712;BME280;5912;51.034;6.984;2024-01-16T00:16:33;56769.00;;;-142.13;69.79
11712;BME280;5912;51.034;6.984;2024-01-16T00:18:58;56769.00;;;-142.13;69.92
11712;BME280;5912;51.034;6.984;2024-01-16T00:21:24;56781.03;;;-142.13;70.27
11712;BME280;5912;51.034;6.984;2024-01-16T00:23:49;56775.03;;;-142.13;70.27
11712;BME280;5912;51.034;6.984;2024-01-16T00:26:21;56793.06;;;-142.13;69.74
11712;BME280;5912;51.034;6.984;2024-01-16T00:28:47;56773.00;;;-142.13;69.95
11712;BME280;5912;51.034;6.984;2024-01-16T00:31:12;56799.06;;;-142.13;69.75
11712;BME280;5912;51.034;6.984;2024-01-16T00:33:38;56789.03;;;-142.13;69.99
11712;BME280;5912;51.034;6.984;2024-01-16T00:36:05;56781.03;;;-142.13;69.67
11712;BME280;5912;51.034;6.984;2024-01-16T00:38:33;56791.03;;;-142.13;69.78
11712;BME280;5912;51.034;6.984;2024-01-16T00:40:58;56787.03;;;-142.13;69.99
11712;BME280;5912;51.034;6.984;2024-01-16T00:43:24;56801.06;;;-142.13;69.89
11712;BME280;5912;51.034;6.984;2024-01-16T00:45:49;56777.03;;;-142.13;70.04
11712;BME280;5912;51.034;6.984;2024-01-16T00:48:14;56716.91;;;-142.13;70.44
11712;BME280;5912;51.034;6.984;2024-01-16T00:50:41;56769.00;;;-142.13;70.37
11712;BME280;5912;51.034;6.984;2024-01-16T00:53:06;56797.06;;;-142.13;70.12
11712;BME280;5912;51.034;6.984;2024-01-16T00:55:32;56754.97;;;-142.13;69.95
11712;BME280;5912;51.034;6.984;2024-01-16T00:57:57;56777.03;;;-142.13;69.71
11712;BME280;5912;51.034;6.984;2024-01-16T01:00:22;56789.03;;;-142.13;69.84
11712;BME280;5912;51.034;6.984;2024-01-16T01:02:47;56773.00;;;-142.13;69.81
11712;BME280;5912;51.034;6.984;2024-01-16T01:05:13;56775.03;;;-142.13;69.83
11712;BME280;5912;51.034;6.984;2024-01-16T01:07:38;56795.06;;;-142.13;69.88
11712;BME280;5912;51.034;6.984;2024-01-16T01:10:04;56765.00;;;-142.13;70.09
11712;BME280;5912;51.034;6.984;2024-01-16T01:12:29;56771.00;;;-142.13;69.61
11712;BME280;5912;51.034;6.984;2024-01-16T01:14:54;56777.03;;;-142.13;69.57
11712;BME280;5912;51.034;6.984;2024-01-16T01:17:19;56789.03;;;-142.13;69.64
11712;BME280;5912;51.034;6.984;2024-01-16T01:19:45;56793.06;;;-142.13;69.59
11712;BME280;5912;51.034;6.984;2024-01-16T01:22:11;56821.09;;;-142.13;69.41
11712;BME280;5912;51.034;6.984;2024-01-16T01:24:37;56775.03;;;-142.13;69.61
11712;BME280;5912;51.034;6.984;2024-01-16T01:27:03;56742.97;;;-142.13;69.34
11712;BME280;5912;51.034;6.984;2024-01-16T01:29:29;56815.09;;;-142.13;69.69
11712;BME280;5912;51.034;6.984;2024-01-16T01:31:54;56805.06;;;-142.13;69.64
11712;BME280;5912;51.034;6.984;2024-01-16T01:34:19;56803.06;;;-142.13;69.63
11712;BME280;5912;51.034;6.984;2024-01-16T01:36:45;56781.03;;;-142.13;69.15
11712;BME280;5912;51.034;6.984;2024-01-16T01:39:10;56799.06;;;-142.13;68.96
11712;BME280;5912;51.034;6.984;2024-01-16T01:41:39;56789.03;;;-142.13;69.45
11712;BME280;5912;51.034;6.984;2024-01-16T01:44:05;56765.00;;;-142.13;68.82
11712;BME280;5912;51.034;6.984;2024-01-16T01:46:32;56777.03;;;-142.13;69.76
11712;BME280;5912;51.034;6.984;2024-01-16T01:48:59;56773.00;;;-142.13;69.61
11712;BME280;5912;51.034;6.984;2024-01-16T01:51:24;56787.03;;;-142.13;69.38
11712;BME280;5912;51.034;6.984;2024-01-16T01:53:52;56799.06;;;-142.13;69.27
11712;BME280;5912;51.034;6.984;2024-01-16T01:56:18;56783.03;;;-142.13;69.42
11712;BME280;5912;51.034;6.984;2024-01-16T01:58:46;56783.03;;;-142.13;68.85
11712;BME280;5912;51.034;6.984;2024-01-16T02:01:13;56791.03;;;-142.13;68.85
11712;BME280;5912;51.034;6.984;2024-01-16T02:03:44;56797.06;;;-142.13;68.69
11712;BME280;5912;51.034;6.984;2024-01-16T02:06:10;56777.03;;;-142.13;68.89
11712;BME280;5912;51.034;6.984;2024-01-16T02:08:36;56789.03;;;-142.13;68.99
11712;BME280;5912;51.034;6.984;2024-01-16T02:11:05;56789.03;;;-142.13;69.34
11712;BME280;5912;51.034;6.984;2024-01-16T02:13:31;56797.06;;;-142.13;69.25
11712;BME280;5912;51.034;6.984;2024-01-16T02:15:56;56789.03;;;-142.13;69.50
11712;BME280;5912;51.034;6.984;2024-01-16T02:18:22;56761.00;;;-142.13;68.82
11712;BME280;5912;51.034;6.984;2024-01-16T02:20:47;56775.03;;;-142.13;69.20
11712;BME280;5912;51.034;6.984;2024-01-16T02:23:14;56807.06;;;-142.13;69.41
11712;BME280;5912;51.034;6.984;2024-01-16T02:25:43;56813.09;;;-142.13;69.31
11712;BME280;5912;51.034;6.984;2024-01-16T02:28:08;56781.03;;;-142.13;69.67
11712;BME280;5912;51.034;6.984;2024-01-16T02:30:34;56913.25;;;-142.13;69.62
11712;BME280;5912;51.034;6.984;2024-01-16T02:32:59;56797.06;;;-142.13;69.36
11712;BME280;5912;51.034;6.984;2024-01-16T02:35:25;56809.06;;;-142.13;69.85
11712;BME280;5912;51.034;6.984;2024-01-16T02:37:50;56811.06;;;-142.13;69.98
11712;BME280;5912;51.034;6.984;2024-01-16T02:40:16;56829.09;;;-142.13;69.93
11712;BME280;5912;51.034;6.984;2024-01-16T02:42:41;56781.03;;;-142.13;69.78
11712;BME280;5912;51.034;6.984;2024-01-16T02:45:07;56761.00;;;-142.13;69.55
11712;BME280;5912;51.034;6.984;2024-01-16T02:47:33;56785.03;;;-142.13;70.07
11712;BME280;5912;51.034;6.984;2024-01-16T02:49:59;56789.03;;;-142.13;69.47
11712;BME280;5912;51.034;6.984;2024-01-16T02:52:24;56797.06;;;-142.13;69.27
11712;BME280;5912;51.034;6.984;2024-01-16T02:54:50;56781.03;;;-142.13;69.66
11712;BME280;5912;51.034;6.984;2024-01-16T02:57:15;56825.09;;;-142.13;69.23
11712;BME280;5912;51.034;6.984;2024-01-16T02:59:43;56805.06;;;-142.13;69.34
11712;BME280;5912;51.034;6.984;2024-01-16T03:02:09;56763.00;;;-142.13;69.15
11712;BME280;5912;51.034;6.984;2024-01-16T03:04:35;56781.03;;;-142.13;68.96
11712;BME280;5912;51.034;6.984;2024-01-16T03:07:00;56791.03;;;-142.13;69.09
11712;BME280;5912;51.034;6.984;2024-01-16T03:09:25;56805.06;;;-142.13;68.86
11712;BME280;5912;51.034;6.984;2024-01-16T03:11:51;56811.06;;;-142.13;69.42
11712;BME280;5912;51.034;6.984;2024-01-16T03:14:17;56801.06;;;-142.13;69.29
11712;BME280;5912;51.034;6.984;2024-01-16T03:16:43;56807.06;;;-142.13;69.39
11712;BME280;5912;51.034;6.984;2024-01-16T03:19:09;56805.06;;;-142.13;69.17
11712;BME280;5912;51.034;6.984;2024-01-16T03:21:34;56773.00;;;-142.13;69.06
11712;BME280;5912;51.034;6.984;2024-01-16T03:24:00;56793.06;;;-142.13;69.19
11712;BME280;5912;51.034;6.984;2024-01-16T03:26:25;56809.06;;;-142.13;69.02
11712;BME280;5912;51.034;6.984;2024-01-16T03:28:50;56795.06;;;-142.13;69.26
11712;BME280;5912;51.034;6.984;2024-01-16T03:31:16;56851.16;;;-142.13;69.19
11712;BME280;5912;51.034;6.984;2024-01-16T03:33:41;56817.09;;;-142.13;69.24
11712;BME280;5912;51.034;6.984;2024-01-16T03:36:08;56769.00;;;-142.13;69.31
11712;BME280;5912;51.034;6.984;2024-01-16T03:38:38;56795.06;;;-142.13;69.27
11712;BME280;5912;51.034;6.984;2024-01-16T03:41:04;56771.00;;;-142.13;69.22
11712;BME280;5912;51.034;6.984;2024-01-16T03:43:32;56805.06;;;-142.13;69.41
11712;BME280;5912;51.034;6.984;2024-01-16T03:45:57;56791.03;;;-142.13;68.92
11712;BME280;5912;51.034;6.984;2024-01-16T03:48:23;56829.09;;;-142.13;68.90
11712;BME280;5912;51.034;6.984;2024-01-16T03:50:48;56773.00;;;-142.13;68.92
11712;BME280;5912;51.034;6.984;2024-01-16T03:53:14;56853.16;;;-142.13;68.89
11712;BME280;5912;51.034;6.984;2024-01-16T03:55:39;56785.03;;;-142.13;69.16
11712;BME280;5912;51.034;6.984;2024-01-16T03:58:04;56763.00;;;-142.13;68.87
11712;BME280;5912;51.034;6.984;2024-01-16T04:00:30;56835.13;;;-142.13;68.53
11712;BME280;5912;51.034;6.984;2024-01-16T04:02:55;56803.06;;;-142.13;69.27
11712;BME280;5912;51.034;6.984;2024-01-16T04:05:20;56761.00;;;-142.13;69.34
11712;BME280;5912;51.034;6.984;2024-01-16T04:07:46;56773.00;;;-142.13;69.22
11712;BME280;5912;51.034;6.984;2024-01-16T04:10:11;56811.06;;;-142.13;68.78
11712;BME280;5912;51.034;6.984;2024-01-16T04:12:36;56781.03;;;-142.13;69.03
11712;BME280;5912;51.034;6.984;2024-01-16T04:15:01;56781.03;;;-142.13;68.90
11712;BME280;5912;51.034;6.984;2024-01-16T04:17:27;56757.00;;;-142.13;68.94
11712;BME280;5912;51.034;6.984;2024-01-16T04:19:52;56805.06;;;-142.13;69.23
11712;BME280;5912;51.034;6.984;2024-01-16T04:22:17;56793.06;;;-142.13;69.50
11712;BME280;5912;51.034;6.984;2024-01-16T04:24:43;56775.03;;;-142.13;69.73
11712;BME280;5912;51.034;6.984;2024-01-16T04:27:11;56787.03;;;-142.13;69.45
11712;BME280;5912;51.034;6.984;2024-01-16T04:29:37;56773.00;;;-142.13;69.68
11712;BME280;5912;51.034;6.984;2024-01-16T04:32:03;56761.00;;;-142.13;69.22
11712;BME280;5912;51.034;6.984;2024-01-16T04:34:29;56807.06;;;-142.13;69.19
11712;BME280;5912;51.034;6.984;2024-01-16T04:36:55;56773.00;;;-142.13;69.31
11712;BME280;5912;51.034;6.984;2024-01-16T04:39:20;56789.03;;;-142.13;69.81
11712;BME280;5912;51.034;6.984;2024-01-16T04:41:48;56973.34;;;-142.13;69.83
11712;BME280;5912;51.034;6.984;2024-01-16T04:44:13;56789.03;;;-142.13;68.90
11712;BME280;5912;51.034;6.984;2024-01-16T04:46:39;56789.03;;;-142.13;68.84
11712;BME280;5912;51.034;6.984;2024-01-16T04:49:04;56785.03;;;-142.13;68.76
11712;BME280;5912;51.034;6.984;2024-01-16T04:51:29;56809.06;;;-142.13;68.89
11712;BME280;5912;51.034;6.984;2024-01-16T04:53:54;56740.97;;;-142.13;69.05
11712;BME280;5912;51.034;6.984;2024-01-16T04:56:20;56809.06;;;-142.13;69.84
11712;BME280;5912;51.034;6.984;2024-01-16T04:58:46;56807.06;;;-142.13;69.10
11712;BME280;5912;51.034;6.984;2024-01-16T05:01:12;56815.09;;;-142.13;68.71
11712;BME280;5912;51.034;6.984;2024-01-16T05:03:38;56789.03;;;-142.13;68.93
11712;BME280;5912;51.034;6.984;2024-01-16T05:06:03;56807.06;;;-142.13;68.62
11712;BME280;5912;51.034;6.984;2024-01-16T05:08:29;56793.06;;;-142.13;68.99
11712;BME280;5912;51.034;6.984;2024-01-16T05:10:55;56775.03;;;-142.13;69.03
11712;BME280;5912;51.034;6.984;2024-01-16T05:13:21;56773.00;;;-142.13;68.80
11712;BME280;5912;51.034;6.984;2024-01-16T05:15:46;56803.06;;;-142.13;68.60
11712;BME280;5912;51.034;6.984;2024-01-16T05:18:11;56795.06;;;-142.13;68.87
11712;BME280;5912;51.034;6.984;2024-01-16T05:20:37;56809.06;;;-142.13;68.94
11712;BME280;5912;51.034;6.984;2024-01-16T05:23:02;56817.09;;;-142.13;69.33
11712;BME280;5912;51.034;6.984;2024-01-16T05:25:27;56795.06;;;-142.13;69.22
11712;BME280;5912;51.034;6.984;2024-01-16T05:27:53;56821.09;;;-142.13;69.64
11712;BME280;5912;51.034;6.984;2024-01-16T05:30:18;56767.00;;;-142.13;69.99
11712;BME280;5912;51.034;6.984;2024-01-16T05:32:43;56807.06;;;-142.13;69.69
11712;BME280;5912;51.034;6.984;2024-01-16T05:35:09;56781.03;;;-142.13;69.48
11712;BME280;5912;51.034;6.984;2024-01-16T05:37:35;56799.06;;;-142.13;69.38
11712;BME280;5912;51.034;6.984;2024-01-16T05:40:01;56779.03;;;-142.13;69.14
11712;BME280;5912;51.034;6.984;2024-01-16T05:42:28;56793.06;;;-142.13;69.27
11712;BME280;5912;51.034;6.984;2024-01-16T05:44:53;56801.06;;;-142.13;68.95
11712;BME280;5912;51.034;6.984;2024-01-16T05:47:18;56783.03;;;-142.13;68.82
11712;BME280;5912;51.034;6.984;2024-01-16T05:49:44;56785.03;;;-142.13;68.96
11712;BME280;5912;51.034;6.984;2024-01-16T05:52:09;56799.06;;;-142.13;68.47
11712;BME280;5912;51.034;6.984;2024-01-16T05:54:35;56869.19;;;-142.13;68.71
11712;BME280;5912;51.034;6.984;2024-01-16T05:57:35;56787.03;;;-142.13;68.24
11712;BME280;5912;51.034;6.984;2024-01-16T06:00:00;56789.03;;;-142.13;67.36
11712;BME280;5912;51.034;6.984;2024-01-16T06:02:28;56797.06;;;-142.13;67.74
11712;BME280;5912;51.034;6.984;2024-01-16T06:04:54;56799.06;;;-142.13;67.47
11712;BME280;5912;51.034;6.984;2024-01-16T06:07:19;56793.06;;;-142.13;67.52
11712;BME280;5912;51.034;6.984;2024-01-16T06:09:44;56795.06;;;-142.13;67.50
11712;BME280;5912;51.034;6.984;2024-01-16T06:12:41;56783.03;;;-142.13;66.81
11712;BME280;5912;51.034;6.984;2024-01-16T06:15:06;56787.03;;;-142.13;66.83
11712;BME280;5912;51.034;6.984;2024-01-16T06:17:32;56777.03;;;-142.13;66.92
11712;BME280;5912;51.034;6.984;2024-01-16T06:19:57;56791.03;;;-142.13;66.64
11712;BME280;5912;51.034;6.984;2024-01-16T06:22:22;56833.13;;;-142.13;66.11
11712;BME280;5912;51.034;6.984;2024-01-16T06:24:48;56807.06;;;-142.13;65.95
11712;BME280;5912;51.034;6.984;2024-01-16T06:27:13;56785.03;;;-142.13;66.10
11712;BME280;5912;51.034;6.984;2024-01-16T06:29:50;56767.00;;;-142.13;66.24
11712;BME280;5912;51.034;6.984;2024-01-16T06:32:16;56797.06;;;-142.13;66.52
11712;BME280;5912;51.034;6.984;2024-01-16T06:34:41;56815.09;;;-142.13;66.23
11712;BME280;5912;51.034;6.984;2024-01-16T06:37:07;56817.09;;;-142.13;66.69
11712;BME280;5912;51.034;6.984;2024-01-16T06:39:33;56763.00;;;-142.13;66.28
11712;BME280;5912;51.034;6.984;2024-01-16T06:41:59;56795.06;;;-142.13;65.65
11712;BME280;5912;51.034;6.984;2024-01-16T06:44:24;56777.03;;;-142.13;65.89
11712;BME280;5912;51.034;6.984;2024-01-16T06:46:50;56821.09;;;-142.13;65.67
11712;BME280;5912;51.034;6.984;2024-01-16T06:49:15;56813.09;;;-142.13;65.34
11712;BME280;5912;51.034;6.984;2024-01-16T06:51:41;56799.06;;;-142.13;64.99
11712;BME280;5912;51.034;6.984;2024-01-16T06:54:06;56801.06;;;-142.13;65.17
11712;BME280;5912;51.034;6.984;2024-01-16T06:56:31;56831.13;;;-142.13;65.31
11712;BME280;5912;51.034;6.984;2024-01-16T06:58:57;56777.03;;;-142.13;65.28
11712;BME280;5912;51.034;6.984;2024-01-16T07:01:22;56791.03;;;-142.13;65.11
11712;BME280;5912;51.034;6.984;2024-01-16T07:03:47;56793.06;;;-142.13;65.06
11712;BME280;5912;51.034;6.984;2024-01-16T07:06:13;56793.06;;;-142.13;65.33
11712;BME280;5912;51.034;6.984;2024-01-16T07:08:38;56963.34;;;-142.13;65.46
11712;BME280;5912;51.034;6.984;2024-01-16T07:11:03;56781.03;;;-142.13;65.29
11712;BME280;5912;51.034;6.984;2024-01-16T07:13:33;56777.03;;;-142.13;64.69
11712;BME280;5912;51.034;6.984;2024-01-16T07:15:58;56805.06;;;-142.13;64.73
11712;BME280;5912;51.034;6.984;2024-01-16T07:18:23;56781.03;;;-142.13;64.36
11712;BME280;5912;51.034;6.984;2024-01-16T07:20:48;56783.03;;;-142.13;64.53
11712;BME280;5912;51.034;6.984;2024-01-16T07:23:29;56779.03;;;-142.13;64.21
11712;BME280;5912;51.034;6.984;2024-01-16T07:25:55;56801.06;;;-142.13;64.14
11712;BME280;5912;51.034;6.984;2024-01-16T07:28:20;56817.09;;;-142.13;63.91
11712;BME280;5912;51.034;6.984;2024-01-16T07:30:47;56787.03;;;-142.13;63.72
11712;BME280;5912;51.034;6.984;2024-01-16T07:33:18;56773.00;;;-142.13;63.74
11712;BME280;5912;51.034;6.984;2024-01-16T07:35:43;56769.00;;;-142.13;63.84
11712;BME280;5912;51.034;6.984;2024-01-16T07:38:12;56785.03;;;-142.13;63.96
11712;BME280;5912;51.034;6.984;2024-01-16T07:40:38;56813.09;;;-142.13;63.02
11712;BME280;5912;51.034;6.984;2024-01-16T07:43:03;56773.00;;;-142.13;62.83
11712;BME280;5912;51.034;6.984;2024-01-16T07:45:28;56789.03;;;-142.13;62.74
11712;BME280;5912;51.034;6.984;2024-01-16T07:47:54;56793.06;;;-142.13;63.01
11712;BME280;5912;51.034;6.984;2024-01-16T07:50:19;56785.03;;;-142.13;63.02
11712;BME280;5912;51.034;6.984;2024-01-16T07:52:44;56787.03;;;-142.13;63.12
11712;BME280;5912;51.034;6.984;2024-01-16T07:55:10;56785.03;;;-142.13;62.64
11712;BME280;5912;51.034;6.984;2024-01-16T07:57:35;56777.03;;;-142.13;62.23
11712;BME280;5912;51.034;6.984;2024-01-16T08:00:00;56777.03;;;-142.13;62.32
11712;BME280;5912;51.034;6.984;2024-01-16T08:02:32;56779.03;;;-142.13;62.23
11712;BME280;5912;51.034;6.984;2024-01-16T08:04:59;56807.06;;;-142.13;62.45
11712;BME280;5912;51.034;6.984;2024-01-16T08:07:24;56773.00;;;-142.13;62.38
11712;BME280;5912;51.034;6.984;2024-01-16T08:09:49;56775.03;;;-142.13;61.57
11712;BME280;5912;51.034;6.984;2024-01-16T08:12:15;56781.03;;;-142.13;61.37
11712;BME280;5912;51.034;6.984;2024-01-16T08:14:40;56769.00;;;-142.13;61.17
11712;BME280;5912;51.034;6.984;2024-01-16T08:17:06;56803.06;;;-142.13;60.83
11712;BME280;5912;51.034;6.984;2024-01-16T08:19:32;56777.03;;;-142.13;61.01
11712;BME280;5912;51.034;6.984;2024-01-16T08:21:57;56771.00;;;-142.13;60.77
11712;BME280;5912;51.034;6.984;2024-01-16T08:24:23;56795.06;;;-142.13;60.44
11712;BME280;5912;51.034;6.984;2024-01-16T08:26:48;56752.97;;;-142.13;60.09
11712;BME280;5912;51.034;6.984;2024-01-16T08:29:51;56765.00;;;-142.13;59.83
11712;BME280;5912;51.034;6.984;2024-01-16T08:32:16;56769.00;;;-142.13;59.57
11712;BME280;5912;51.034;6.984;2024-01-16T08:34:42;56765.00;;;-142.13;59.70
11712;BME280;5912;51.034;6.984;2024-01-16T08:37:08;56767.00;;;-142.13;59.63
11712;BME280;5912;51.034;6.984;2024-01-16T08:39:34;56793.06;;;-142.13;59.48
11712;BME280;5912;51.034;6.984;2024-01-16T08:42:00;56797.06;;;-142.13;60.24
11712;BME280;5912;51.034;6.984;2024-01-16T08:44:27;56767.00;;;-142.13;59.71
11712;BME280;5912;51.034;6.984;2024-01-16T08:46:52;56777.03;;;-142.13;58.95
11712;BME280;5912;51.034;6.984;2024-01-16T08:49:18;56769.00;;;-142.13;58.52
11712;BME280;5912;51.034;6.984;2024-01-16T08:51:43;56777.03;;;-142.13;58.47
11712;BME280;5912;51.034;6.984;2024-01-16T08:54:08;56730.94;;;-142.13;58.51
11712;BME280;5912;51.034;6.984;2024-01-16T08:56:34;56765.00;;;-142.13;57.10
11712;BME280;5912;51.034;6.984;2024-01-16T08:58:59;56777.03;;;-142.13;56.99
11712;BME280;5912;51.034;6.984;2024-01-16T09:01:24;56740.97;;;-142.13;56.41
11712;BME280;5912;51.034;6.984;2024-01-16T09:03:50;56754.97;;;-142.13;56.52
11712;BME280;5912;51.034;6.984;2024-01-16T09:06:16;56710.91;;;-142.13;56.50
11712;BME280;5912;51.034;6.984;2024-01-16T09:08:42;56783.03;;;-142.13;55.83
11712;BME280;5912;51.034;6.984;2024-01-16T09:11:09;56769.00;;;-142.13;55.78
11712;BME280;5912;51.034;6.984;2024-01-16T09:13:35;56734.94;;;-142.13;54.77
11712;BME280;5912;51.034;6.984;2024-01-16T09:16:01;56730.94;;;-142.13;54.28
11712;BME280;5912;51.034;6.984;2024-01-16T09:18:27;56750.97;;;-142.13;53.49
11712;BME280;5912;51.034;6.984;2024-01-16T09:20:52;56757.00;;;-142.13;53.77
11712;BME280;5912;51.034;6.984;2024-01-16T09:23:17;56730.94;;;-142.13;53.42
11712;BME280;5912;51.034;6.984;2024-01-16T09:25:43;56732.94;;;-142.13;53.40
11712;BME280;5912;51.034;6.984;2024-01-16T09:28:08;56704.91;;;-142.13;53.45
11712;BME280;5912;51.034;6.984;2024-01-16T09:30:34;56771.00;;;-142.13;52.81
11712;BME280;5912;51.034;6.984;2024-01-16T09:33:08;56752.97;;;-142.13;53.13
11712;BME280;5912;51.034;6.984;2024-01-16T09:35:36;56787.03;;;-142.13;52.80
11712;BME280;5912;51.034;6.984;2024-01-16T09:38:01;56777.03;;;-142.13;54.20
11712;BME280;5912;51.034;6.984;2024-01-16T09:40:26;56744.97;;;-142.13;54.74
11712;BME280;5912;51.034;6.984;2024-01-16T09:42:52;56734.94;;;-142.13;53.80
11712;BME280;5912;51.034;6.984;2024-01-16T09:45:20;56748.97;;;-142.13;54.59
11712;BME280;5912;51.034;6.984;2024-01-16T09:47:52;56740.97;;;-142.13;55.35
11712;BME280;5912;51.034;6.984;2024-01-16T09:50:19;56748.97;;;-142.13;54.39
11712;BME280;5912;51.034;6.984;2024-01-16T09:52:47;56730.94;;;-142.13;54.08
11712;BME280;5912;51.034;6.984;2024-01-16T09:55:16;56730.94;;;-142.13;54.45
11712;BME280;5912;51.034;6.984;2024-01-16T09:57:45;56777.03;;;-142.13;53.80
11712;BME280;5912;51.034;6.984;2024-01-16T10:00:11;56734.94;;;-142.13;54.27
11712;BME280;5912;51.034;6.984;2024-01-16T10:02:40;56761.00;;;-142.13;53.51
11712;BME280;5912;51.034;6.984;2024-01-16T10:05:13;56752.97;;;-142.13;52.33
11712;BME280;5912;51.034;6.984;2024-01-16T10:07:40;56757.00;;;-142.13;53.23
11712;BME280;5912;51.034;6.984;2024-01-16T10:10:06;56759.00;;;-142.13;52.49
11712;BME280;5912;51.034;6.984;2024-01-16T10:12:32;56732.94;;;-142.13;51.70
11712;BME280;5912;51.034;6.984;2024-01-16T10:14:58;56736.94;;;-142.13;51.90
11712;BME280;5912;51.034;6.984;2024-01-16T10:17:38;56754.97;;;-142.13;50.55
11712;BME280;5912;51.034;6.984;2024-01-16T10:20:05;56759.00;;;-142.13;50.88
11712;BME280;5912;51.034;6.984;2024-01-16T10:22:31;56738.97;;;-142.13;50.80
11712;BME280;5912;51.034;6.984;2024-01-16T10:25:10;56714.91;;;-142.13;50.58
11712;BME280;5912;51.034;6.984;2024-01-16T10:27:39;56829.09;;;-142.13;51.34
11712;BME280;5912;51.034;6.984;2024-01-16T10:30:05;56724.94;;;-142.13;51.92
11712;BME280;5912;51.034;6.984;2024-01-16T10:32:35;56734.94;;;-142.13;50.70
11712;BME280;5912;51.034;6.984;2024-01-16T10:37:31;56712.91;;;-142.13;50.58
11712;BME280;5912;51.034;6.984;2024-01-16T10:40:07;56732.94;;;-142.13;51.00
11712;BME280;5912;51.034;6.984;2024-01-16T10:42:32;56748.97;;;-142.13;49.99
11712;BME280;5912;51.034;6.984;2024-01-16T10:44:57;56718.91;;;-142.13;50.21
11712;BME280;5912;51.034;6.984;2024-01-16T10:47:25;56746.97;;;-142.13;50.89
11712;BME280;5912;51.034;6.984;2024-01-16T10:49:51;56720.94;;;-142.13;50.83
11712;BME280;5912;51.034;6.984;2024-01-16T10:52:17;56736.94;;;-142.13;50.34
11712;BME280;5912;51.034;6.984;2024-01-16T10:54:43;56720.94;;;-142.13;48.50
11712;BME280;5912;51.034;6.984;2024-01-16T10:57:13;56716.91;;;-142.13;45.98
11712;BME280;5912;51.034;6.984;2024-01-16T11:00:03;56662.81;;;-142.13;46.20
11712;BME280;5912;51.034;6.984;2024-01-16T11:02:40;56660.81;;;-142.13;46.13
11712;BME280;5912;51.034;6.984;2024-01-16T11:05:09;56660.81;;;-142.13;43.24
11712;BME280;5912;51.034;6.984;2024-01-16T11:07:37;56658.81;;;-142.13;42.98
11712;BME280;5912;51.034;6.984;2024-01-16T11:10:03;56664.84;;;-142.13;40.91
11712;BME280;5912;51.034;6.984;2024-01-16T11:12:30;56636.78;;;-142.13;41.34
11712;BME280;5912;51.034;6.984;2024-01-16T11:15:00;56710.91;;;-142.13;42.42
11712;BME280;5912;51.034;6.984;2024-01-16T11:17:28;56684.88;;;-142.13;41.56
11712;BME280;5912;51.034;6.984;2024-01-16T11:19:55;56676.84;;;-142.13;42.28
11712;BME280;5912;51.034;6.984;2024-01-16T11:22:22;56696.88;;;-142.13;43.14
11712;BME280;5912;51.034;6.984;2024-01-16T11:25:10;56676.84;;;-142.13;43.92
11712;BME280;5912;51.034;6.984;2024-01-16T11:27:37;56688.88;;;-142.13;42.57
11712;BME280;5912;51.034;6.984;2024-01-16T11:30:07;56700.91;;;-142.13;44.40
11712;BME280;5912;51.034;6.984;2024-01-16T11:32:35;56684.88;;;-142.13;44.24
11712;BME280;5912;51.034;6.984;2024-01-16T11:35:01;56640.78;;;-142.13;44.88
11712;BME280;5912;51.034;6.984;2024-01-16T11:37:33;56740.97;;;-142.13;44.45
11712;BME280;5912;51.034;6.984;2024-01-16T11:40:22;56702.91;;;-142.13;45.13
11712;BME280;5912;51.034;6.984;2024-01-16T11:42:49;56708.91;;;-142.13;45.38
11712;BME280;5912;51.034;6.984;2024-01-16T11:48:12;56700.91;;;-142.13;46.00
11712;BME280;5912;51.034;6.984;2024-01-16T11:50:38;56750.97;;;-142.13;45.76
11712;BME280;5912;51.034;6.984;2024-01-16T11:53:03;56702.91;;;-142.13;45.13
11712;BME280;5912;51.034;6.984;2024-01-16T11:55:33;56708.91;;;-142.13;46.35
11712;BME280;5912;51.034;6.984;2024-01-16T12:01:05;56684.88;;;-142.13;44.30
11712;BME280;5912;51.034;6.984;2024-01-16T12:03:30;56668.84;;;-142.13;42.24
11712;BME280;5912;51.034;6.984;2024-01-16T12:05:59;56676.84;;;-142.13;41.41
11712;BME280;5912;51.034;6.984;2024-01-16T12:08:25;56676.84;;;-142.13;41.88
11712;BME280;5912;51.034;6.984;2024-01-16T12:10:51;56716.91;;;-142.13;42.86
11712;BME280;5912;51.034;6.984;2024-01-16T12:13:16;56672.84;;;-142.13;42.35
11712;BME280;5912;51.034;6.984;2024-01-16T12:15:42;56680.84;;;-142.13;42.76
11712;BME280;5912;51.034;6.984;2024-01-16T12:18:08;56672.84;;;-142.13;42.88
11712;BME280;5912;51.034;6.984;2024-01-16T12:20:35;56668.84;;;-142.13;42.69
11712;BME280;5912;51.034;6.984;2024-01-16T12:23:04;56626.78;;;-142.13;41.34
11712;BME280;5912;51.034;6.984;2024-01-16T12:25:31;56642.78;;;-142.13;40.31
11712;BME280;5912;51.034;6.984;2024-01-16T12:27:58;56652.81;;;-142.13;39.82
11712;BME280;5912;51.034;6.984;2024-01-16T12:30:24;56666.84;;;-142.13;40.83
11712;BME280;5912;51.034;6.984;2024-01-16T12:32:50;56650.81;;;-142.13;41.12
11712;BME280;5912;51.034;6.984;2024-01-16T12:35:22;56640.78;;;-142.13;41.54
11712;BME280;5912;51.034;6.984;2024-01-16T12:38:00;56867.19;;;-142.13;41.09
11712;BME280;5912;51.034;6.984;2024-01-16T12:40:26;56664.84;;;-142.13;41.57
11712;BME280;5912;51.034;6.984;2024-01-16T12:42:52;56652.81;;;-142.13;41.46
11712;BME280;5912;51.034;6.984;2024-01-16T12:45:18;56666.84;;;-142.13;42.43
11712;BME280;5912;51.034;6.984;2024-01-16T12:47:44;56674.84;;;-142.13;42.96
11712;BME280;5912;51.034;6.984;2024-01-16T12:50:10;56686.88;;;-142.13;43.78
11712;BME280;5912;51.034;6.984;2024-01-16T12:52:35;56684.88;;;-142.13;44.49
11712;BME280;5912;51.034;6.984;2024-01-16T12:55:01;56696.88;;;-142.13;42.91
11712;BME280;5912;51.034;6.984;2024-01-16T12:57:26;56700.91;;;-142.13;43.43